sensor_id;sensor_type;location;lat;lon;timestamp;P1;durP1;ratioP1;P2;durP2;ratioP2
57107;SDS011;42987;52.916;6.542;2022-12-20T00:00:54;9.30;;;6.70;;
57107;SDS011;42987;52.916;6.542;2022-12-20T00:03:20;6.88;;;5.57;;
57107;SDS011;42987;52.916;6.542;2022-12-20T00:05:45;8.00;;;6.38;;
57107;SDS011;42987;52.916;6.542;2022-12-20T00:08:11;7.32;;;5.90;;
57107;SDS011;42987;52.916;6.542;2022-12-20T00:10:38;9.25;;;6.75;;
57107;SDS011;42987;52.916;6.542;2022-12-20T00:13:08;8.18;;;5.95;;
57107;SDS011;42987;52.916;6.542;2022-12-20T00:15:35;7.57;;;6.10;;
57107;SDS011;42987;52.916;6.542;2022-12-20T00:18:04;9.25;;;6.43;;
57107;SDS011;42987;52.916;6.542;2022-12-20T00:20:30;7.43;;;6.22;;
57107;SDS011;42987;52.916;6.542;2022-12-20T00:22:56;8.73;;;6.60;;
57107;SDS011;42987;52.916;6.542;2022-12-20T00:25:21;9.18;;;6.28;;
57107;SDS011;42987;52.916;6.542;2022-12-20T00:27:48;8.55;;;6.07;;
57107;SDS011;42987;52.916;6.542;2022-12-20T00:30:14;7.70;;;6.32;;
57107;SDS011;42987;52.916;6.542;2022-12-20T00:32:41;9.63;;;6.20;;
57107;SDS011;42987;52.916;6.542;2022-12-20T00:35:08;8.52;;;6.38;;
57107;SDS011;42987;52.916;6.542;2022-12-20T00:37:34;10.38;;;5.97;;
57107;SDS011;42987;52.916;6.542;2022-12-20T00:40:00;7.25;;;5.93;;
57107;SDS011;42987;52.916;6.542;2022-12-20T00:42:30;8.60;;;6.65;;
57107;SDS011;42987;52.916;6.542;2022-12-20T00:44:59;8.25;;;5.93;;
57107;SDS011;42987;52.916;6.542;2022-12-20T00:47:36;7.65;;;6.15;;
57107;SDS011;42987;52.916;6.542;2022-12-20T00:50:02;9.00;;;5.55;;
57107;SDS011;42987;52.916;6.542;2022-12-20T00:52:28;8.70;;;5.90;;
57107;SDS011;42987;52.916;6.542;2022-12-20T00:55:02;7.40;;;5.22;;
57107;SDS011;42987;52.916;6.542;2022-12-20T00:57:28;8.55;;;5.88;;
57107;SDS011;42987;52.916;6.542;2022-12-20T01:00:00;6.90;;;5.75;;
57107;SDS011;42987;52.916;6.542;2022-12-20T01:02:32;7.40;;;5.32;;
57107;SDS011;42987;52.916;6.542;2022-12-20T01:04:58;8.30;;;5.95;;
57107;SDS011;42987;52.916;6.542;2022-12-20T01:07:24;7.95;;;5.57;;
57107;SDS011;42987;52.916;6.542;2022-12-20T01:09:50;7.18;;;5.25;;
57107;SDS011;42987;52.916;6.542;2022-12-20T01:12:16;6.80;;;5.28;;
57107;SDS011;42987;52.916;6.542;2022-12-20T01:14:43;6.95;;;5.10;;
57107;SDS011;42987;52.916;6.542;2022-12-20T01:17:09;6.75;;;5.10;;
57107;SDS011;42987;52.916;6.542;2022-12-20T01:19:35;6.45;;;5.13;;
57107;SDS011;42987;52.916;6.542;2022-12-20T01:22:00;6.45;;;5.25;;
57107;SDS011;42987;52.916;6.542;2022-12-20T01:24:29;7.72;;;5.40;;
57107;SDS011;42987;52.916;6.542;2022-12-20T01:26:55;7.35;;;4.90;;
57107;SDS011;42987;52.916;6.542;2022-12-20T01:29:21;5.97;;;5.00;;
57107;SDS011;42987;52.916;6.542;2022-12-20T01:31:47;6.57;;;4.80;;
57107;SDS011;42987;52.916;6.542;2022-12-20T01:34:12;7.78;;;5.40;;
57107;SDS011;42987;52.916;6.542;2022-12-20T01:36:38;6.38;;;4.80;;
57107;SDS011;42987;52.916;6.542;2022-12-20T01:39:09;8.88;;;5.50;;
57107;SDS011;42987;52.916;6.542;2022-12-20T01:41:38;7.40;;;5.05;;
57107;SDS011;42987;52.916;6.542;2022-12-20T01:44:05;8.02;;;5.43;;
57107;SDS011;42987;52.916;6.542;2022-12-20T01:46:40;6.20;;;5.00;;
57107;SDS011;42987;52.916;6.542;2022-12-20T01:51:46;7.88;;;5.00;;
57107;SDS011;42987;52.916;6.542;2022-12-20T01:54:33;6.32;;;5.10;;
57107;SDS011;42987;52.916;6.542;2022-12-20T01:57:12;6.85;;;4.70;;
57107;SDS011;42987;52.916;6.542;2022-12-20T01:59:41;6.97;;;5.05;;
57107;SDS011;42987;52.916;6.542;2022-12-20T02:02:10;8.27;;;5.13;;
57107;SDS011;42987;52.916;6.542;2022-12-20T02:04:37;8.55;;;5.15;;
57107;SDS011;42987;52.916;6.542;2022-12-20T02:07:03;7.07;;;5.15;;
57107;SDS011;42987;52.916;6.542;2022-12-20T02:09:32;6.28;;;4.97;;
57107;SDS011;42987;52.916;6.542;2022-12-20T02:15:03;7.55;;;5.00;;
57107;SDS011;42987;52.916;6.542;2022-12-20T02:18:41;6.40;;;4.90;;
57107;SDS011;42987;52.916;6.542;2022-12-20T02:32:08;7.45;;;4.70;;
57107;SDS011;42987;52.916;6.542;2022-12-20T02:34:43;7.45;;;4.80;;
57107;SDS011;42987;52.916;6.542;2022-12-20T02:37:10;6.90;;;4.75;;
57107;SDS011;42987;52.916;6.542;2022-12-20T02:39:36;6.20;;;5.10;;
57107;SDS011;42987;52.916;6.542;2022-12-20T02:42:08;5.68;;;4.65;;
57107;SDS011;42987;52.916;6.542;2022-12-20T02:44:43;7.60;;;4.47;;
57107;SDS011;42987;52.916;6.542;2022-12-20T02:47:44;6.97;;;5.07;;
57107;SDS011;42987;52.916;6.542;2022-12-20T02:50:12;7.18;;;5.03;;
57107;SDS011;42987;52.916;6.542;2022-12-20T02:52:41;6.97;;;5.40;;
57107;SDS011;42987;52.916;6.542;2022-12-20T02:55:07;7.90;;;5.30;;
57107;SDS011;42987;52.916;6.542;2022-12-20T02:57:45;7.68;;;5.05;;
57107;SDS011;42987;52.916;6.542;2022-12-20T03:00:20;8.32;;;5.72;;
57107;SDS011;42987;52.916;6.542;2022-12-20T03:02:47;7.65;;;6.32;;
57107;SDS011;42987;52.916;6.542;2022-12-20T03:05:35;8.65;;;5.88;;
57107;SDS011;42987;52.916;6.542;2022-12-20T03:08:09;8.45;;;6.72;;
57107;SDS011;42987;52.916;6.542;2022-12-20T03:10:35;9.70;;;6.93;;
57107;SDS011;42987;52.916;6.542;2022-12-20T03:13:01;7.90;;;6.32;;
57107;SDS011;42987;52.916;6.542;2022-12-20T03:15:27;10.00;;;6.57;;
57107;SDS011;42987;52.916;6.542;2022-12-20T03:17:53;9.27;;;7.13;;
57107;SDS011;42987;52.916;6.542;2022-12-20T03:20:18;7.22;;;6.50;;
57107;SDS011;42987;52.916;6.542;2022-12-20T03:22:47;8.23;;;7.25;;
57107;SDS011;42987;52.916;6.542;2022-12-20T03:25:13;10.23;;;7.05;;
57107;SDS011;42987;52.916;6.542;2022-12-20T03:27:39;7.47;;;6.70;;
57107;SDS011;42987;52.916;6.542;2022-12-20T03:30:07;10.00;;;6.82;;
57107;SDS011;42987;52.916;6.542;2022-12-20T03:32:34;10.10;;;6.80;;
57107;SDS011;42987;52.916;6.542;2022-12-20T03:34:59;10.02;;;7.00;;
57107;SDS011;42987;52.916;6.542;2022-12-20T03:37:25;8.27;;;6.47;;
57107;SDS011;42987;52.916;6.542;2022-12-20T03:39:51;8.70;;;7.05;;
57107;SDS011;42987;52.916;6.542;2022-12-20T03:42:20;9.45;;;6.88;;
57107;SDS011;42987;52.916;6.542;2022-12-20T03:44:46;6.95;;;6.22;;
57107;SDS011;42987;52.916;6.542;2022-12-20T03:47:12;9.77;;;6.68;;
57107;SDS011;42987;52.916;6.542;2022-12-20T03:49:38;8.82;;;7.03;;
57107;SDS011;42987;52.916;6.542;2022-12-20T03:52:03;9.68;;;7.30;;
57107;SDS011;42987;52.916;6.542;2022-12-20T03:54:30;9.15;;;7.43;;
57107;SDS011;42987;52.916;6.542;2022-12-20T03:56:55;7.53;;;6.78;;
57107;SDS011;42987;52.916;6.542;2022-12-20T03:59:21;8.35;;;6.95;;
57107;SDS011;42987;52.916;6.542;2022-12-20T04:01:47;9.68;;;6.90;;
57107;SDS011;42987;52.916;6.542;2022-12-20T04:04:13;8.45;;;6.95;;
57107;SDS011;42987;52.916;6.542;2022-12-20T04:06:40;7.85;;;7.05;;
57107;SDS011;42987;52.916;6.542;2022-12-20T04:09:06;8.68;;;6.70;;
57107;SDS011;42987;52.916;6.542;2022-12-20T04:11:32;8.43;;;7.13;;
57107;SDS011;42987;52.916;6.542;2022-12-20T04:13:57;7.75;;;6.75;;
57107;SDS011;42987;52.916;6.542;2022-12-20T04:16:24;10.98;;;7.88;;
57107;SDS011;42987;52.916;6.542;2022-12-20T04:18:51;9.90;;;7.38;;
57107;SDS011;42987;52.916;6.542;2022-12-20T04:21:21;9.93;;;7.32;;
57107;SDS011;42987;52.916;6.542;2022-12-20T04:23:48;9.30;;;8.02;;
57107;SDS011;42987;52.916;6.542;2022-12-20T04:26:15;10.10;;;8.23;;
57107;SDS011;42987;52.916;6.542;2022-12-20T04:28:41;10.88;;;8.20;;
57107;SDS011;42987;52.916;6.542;2022-12-20T04:31:07;8.65;;;7.50;;
57107;SDS011;42987;52.916;6.542;2022-12-20T04:33:34;9.05;;;8.15;;
57107;SDS011;42987;52.916;6.542;2022-12-20T04:36:03;10.20;;;7.57;;
57107;SDS011;42987;52.916;6.542;2022-12-20T04:38:32;9.43;;;8.40;;
57107;SDS011;42987;52.916;6.542;2022-12-20T04:40:58;11.35;;;8.75;;
57107;SDS011;42987;52.916;6.542;2022-12-20T04:43:24;9.23;;;8.15;;
57107;SDS011;42987;52.916;6.542;2022-12-20T04:45:51;10.10;;;8.05;;
57107;SDS011;42987;52.916;6.542;2022-12-20T04:48:20;8.23;;;7.43;;
57107;SDS011;42987;52.916;6.542;2022-12-20T04:50:55;9.00;;;8.00;;
57107;SDS011;42987;52.916;6.542;2022-12-20T04:53:21;10.05;;;7.57;;
57107;SDS011;42987;52.916;6.542;2022-12-20T04:56:06;9.20;;;7.53;;
57107;SDS011;42987;52.916;6.542;2022-12-20T04:58:32;8.73;;;7.53;;
57107;SDS011;42987;52.916;6.542;2022-12-20T05:00:58;9.10;;;6.80;;
57107;SDS011;42987;52.916;6.542;2022-12-20T05:03:24;8.02;;;7.18;;
57107;SDS011;42987;52.916;6.542;2022-12-20T05:05:51;8.40;;;7.45;;
57107;SDS011;42987;52.916;6.542;2022-12-20T05:08:17;7.82;;;6.78;;
57107;SDS011;42987;52.916;6.542;2022-12-20T05:10:43;7.40;;;6.63;;
57107;SDS011;42987;52.916;6.542;2022-12-20T05:13:09;8.40;;;6.03;;
57107;SDS011;42987;52.916;6.542;2022-12-20T05:15:35;9.10;;;6.78;;
57107;SDS011;42987;52.916;6.542;2022-12-20T05:18:04;6.90;;;6.20;;
57107;SDS011;42987;52.916;6.542;2022-12-20T05:20:30;8.57;;;6.75;;
57107;SDS011;42987;52.916;6.542;2022-12-20T05:22:57;7.38;;;5.97;;
57107;SDS011;42987;52.916;6.542;2022-12-20T05:25:43;7.50;;;6.38;;
57107;SDS011;42987;52.916;6.542;2022-12-20T05:28:29;7.95;;;5.88;;
57107;SDS011;42987;52.916;6.542;2022-12-20T05:30:55;7.55;;;6.20;;
57107;SDS011;42987;52.916;6.542;2022-12-20T05:33:21;7.60;;;5.82;;
57107;SDS011;42987;52.916;6.542;2022-12-20T05:35:47;6.65;;;5.72;;
57107;SDS011;42987;52.916;6.542;2022-12-20T05:38:13;9.10;;;5.55;;
57107;SDS011;42987;52.916;6.542;2022-12-20T05:40:39;6.43;;;5.43;;
57107;SDS011;42987;52.916;6.542;2022-12-20T05:43:05;7.35;;;5.78;;
57107;SDS011;42987;52.916;6.542;2022-12-20T05:45:34;7.05;;;5.85;;
57107;SDS011;42987;52.916;6.542;2022-12-20T05:48:00;7.57;;;5.53;;
57107;SDS011;42987;52.916;6.542;2022-12-20T05:50:29;6.15;;;5.40;;
57107;SDS011;42987;52.916;6.542;2022-12-20T05:52:55;7.47;;;5.45;;
57107;SDS011;42987;52.916;6.542;2022-12-20T05:55:21;6.13;;;5.32;;
57107;SDS011;42987;52.916;6.542;2022-12-20T05:57:46;7.07;;;5.00;;
57107;SDS011;42987;52.916;6.542;2022-12-20T06:00:12;8.50;;;5.35;;
57107;SDS011;42987;52.916;6.542;2022-12-20T06:02:39;8.55;;;5.43;;
57107;SDS011;42987;52.916;6.542;2022-12-20T06:05:05;7.40;;;5.10;;
57107;SDS011;42987;52.916;6.542;2022-12-20T06:07:34;7.22;;;5.15;;
57107;SDS011;42987;52.916;6.542;2022-12-20T06:10:00;7.63;;;5.18;;
57107;SDS011;42987;52.916;6.542;2022-12-20T06:12:29;8.30;;;4.97;;
57107;SDS011;42987;52.916;6.542;2022-12-20T06:14:54;6.43;;;4.95;;
57107;SDS011;42987;52.916;6.542;2022-12-20T06:17:21;7.07;;;4.93;;
57107;SDS011;42987;52.916;6.542;2022-12-20T06:19:49;7.55;;;5.53;;
57107;SDS011;42987;52.916;6.542;2022-12-20T06:22:15;6.75;;;4.78;;
57107;SDS011;42987;52.916;6.542;2022-12-20T06:24:41;9.07;;;5.25;;
57107;SDS011;42987;52.916;6.542;2022-12-20T06:27:06;6.95;;;4.78;;
57107;SDS011;42987;52.916;6.542;2022-12-20T06:29:34;7.28;;;5.10;;
57107;SDS011;42987;52.916;6.542;2022-12-20T06:32:04;7.20;;;4.97;;
57107;SDS011;42987;52.916;6.542;2022-12-20T06:34:30;6.35;;;4.70;;
57107;SDS011;42987;52.916;6.542;2022-12-20T06:36:57;8.30;;;6.05;;
57107;SDS011;42987;52.916;6.542;2022-12-20T06:39:23;7.75;;;6.28;;
57107;SDS011;42987;52.916;6.542;2022-12-20T06:41:48;10.65;;;6.72;;
57107;SDS011;42987;52.916;6.542;2022-12-20T06:44:14;9.07;;;7.07;;
57107;SDS011;42987;52.916;6.542;2022-12-20T06:46:40;9.35;;;7.50;;
57107;SDS011;42987;52.916;6.542;2022-12-20T06:49:06;9.27;;;7.53;;
57107;SDS011;42987;52.916;6.542;2022-12-20T06:51:32;9.48;;;8.40;;
57107;SDS011;42987;52.916;6.542;2022-12-20T06:53:58;9.38;;;8.18;;
57107;SDS011;42987;52.916;6.542;2022-12-20T06:56:23;10.52;;;8.48;;
57107;SDS011;42987;52.916;6.542;2022-12-20T06:58:49;9.48;;;8.38;;
57107;SDS011;42987;52.916;6.542;2022-12-20T07:01:15;10.10;;;8.63;;
57107;SDS011;42987;52.916;6.542;2022-12-20T07:03:41;13.40;;;9.68;;
57107;SDS011;42987;52.916;6.542;2022-12-20T07:06:06;11.07;;;9.80;;
57107;SDS011;42987;52.916;6.542;2022-12-20T07:08:32;12.20;;;10.88;;
57107;SDS011;42987;52.916;6.542;2022-12-20T07:11:05;12.88;;;10.55;;
57107;SDS011;42987;52.916;6.542;2022-12-20T07:13:37;11.02;;;9.90;;
57107;SDS011;42987;52.916;6.542;2022-12-20T07:16:03;12.43;;;10.52;;
57107;SDS011;42987;52.916;6.542;2022-12-20T07:18:29;12.07;;;10.63;;
57107;SDS011;42987;52.916;6.542;2022-12-20T07:21:03;12.30;;;11.15;;
57107;SDS011;42987;52.916;6.542;2022-12-20T07:23:30;12.25;;;10.98;;
57107;SDS011;42987;52.916;6.542;2022-12-20T07:25:59;11.45;;;10.25;;
57107;SDS011;42987;52.916;6.542;2022-12-20T07:28:26;12.35;;;11.15;;
57107;SDS011;42987;52.916;6.542;2022-12-20T07:30:52;11.80;;;10.60;;
57107;SDS011;42987;52.916;6.542;2022-12-20T07:33:19;12.35;;;11.15;;
57107;SDS011;42987;52.916;6.542;2022-12-20T07:35:45;13.20;;;10.65;;
57107;SDS011;42987;52.916;6.542;2022-12-20T07:38:11;11.55;;;10.30;;
57107;SDS011;42987;52.916;6.542;2022-12-20T07:40:41;12.07;;;10.07;;
57107;SDS011;42987;52.916;6.542;2022-12-20T07:43:08;11.38;;;10.18;;
57107;SDS011;42987;52.916;6.542;2022-12-20T07:45:37;11.70;;;9.85;;
57107;SDS011;42987;52.916;6.542;2022-12-20T07:48:03;12.63;;;9.68;;
57107;SDS011;42987;52.916;6.542;2022-12-20T07:50:29;10.73;;;9.63;;
57107;SDS011;42987;52.916;6.542;2022-12-20T07:55:27;9.68;;;8.68;;
57107;SDS011;42987;52.916;6.542;2022-12-20T07:57:56;10.43;;;9.43;;
57107;SDS011;42987;52.916;6.542;2022-12-20T08:00:28;11.48;;;9.38;;
57107;SDS011;42987;52.916;6.542;2022-12-20T08:02:57;11.75;;;8.93;;
57107;SDS011;42987;52.916;6.542;2022-12-20T08:05:33;10.80;;;9.13;;
57107;SDS011;42987;52.916;6.542;2022-12-20T08:08:04;9.07;;;8.18;;
57107;SDS011;42987;52.916;6.542;2022-12-20T08:10:35;9.15;;;8.25;;
57107;SDS011;42987;52.916;6.542;2022-12-20T08:13:03;11.00;;;8.48;;
57107;SDS011;42987;52.916;6.542;2022-12-20T08:15:30;8.43;;;6.90;;
57107;SDS011;42987;52.916;6.542;2022-12-20T08:18:00;11.25;;;7.40;;
57107;SDS011;42987;52.916;6.542;2022-12-20T08:20:26;7.65;;;6.93;;
57107;SDS011;42987;52.916;6.542;2022-12-20T08:22:55;7.60;;;6.13;;
57107;SDS011;42987;52.916;6.542;2022-12-20T08:25:20;9.30;;;6.45;;
57107;SDS011;42987;52.916;6.542;2022-12-20T08:27:46;7.22;;;5.80;;
57107;SDS011;42987;52.916;6.542;2022-12-20T08:30:13;7.05;;;5.25;;
57107;SDS011;42987;52.916;6.542;2022-12-20T08:32:40;9.40;;;5.43;;
57107;SDS011;42987;52.916;6.542;2022-12-20T08:35:06;8.63;;;5.90;;
57107;SDS011;42987;52.916;6.542;2022-12-20T08:37:32;8.52;;;5.68;;
57107;SDS011;42987;52.916;6.542;2022-12-20T08:39:59;9.00;;;5.80;;
57107;SDS011;42987;52.916;6.542;2022-12-20T08:42:25;7.18;;;4.97;;
57107;SDS011;42987;52.916;6.542;2022-12-20T08:44:52;7.97;;;5.30;;
57107;SDS011;42987;52.916;6.542;2022-12-20T08:47:18;6.93;;;4.82;;
57107;SDS011;42987;52.916;6.542;2022-12-20T08:49:43;7.97;;;4.63;;
57107;SDS011;42987;52.916;6.542;2022-12-20T08:52:09;6.97;;;4.80;;
57107;SDS011;42987;52.916;6.542;2022-12-20T08:54:35;5.82;;;4.63;;
57107;SDS011;42987;52.916;6.542;2022-12-20T08:57:03;6.82;;;4.68;;
57107;SDS011;42987;52.916;6.542;2022-12-20T08:59:29;6.32;;;4.72;;
57107;SDS011;42987;52.916;6.542;2022-12-20T09:01:55;6.72;;;4.57;;
57107;SDS011;42987;52.916;6.542;2022-12-20T09:04:21;7.25;;;4.43;;
57107;SDS011;42987;52.916;6.542;2022-12-20T09:06:47;5.13;;;4.18;;
57107;SDS011;42987;52.916;6.542;2022-12-20T09:09:13;6.93;;;4.53;;
57107;SDS011;42987;52.916;6.542;2022-12-20T09:11:40;6.38;;;4.60;;
57107;SDS011;42987;52.916;6.542;2022-12-20T09:14:06;7.15;;;4.65;;
57107;SDS011;42987;52.916;6.542;2022-12-20T09:16:33;7.47;;;4.15;;
57107;SDS011;42987;52.916;6.542;2022-12-20T09:18:59;6.53;;;4.32;;
57107;SDS011;42987;52.916;6.542;2022-12-20T09:21:26;6.72;;;4.45;;
57107;SDS011;42987;52.916;6.542;2022-12-20T09:23:53;5.82;;;4.22;;
57107;SDS011;42987;52.916;6.542;2022-12-20T09:26:19;8.90;;;4.53;;
57107;SDS011;42987;52.916;6.542;2022-12-20T09:28:46;7.03;;;4.80;;
57107;SDS011;42987;52.916;6.542;2022-12-20T09:31:13;8.38;;;4.30;;
57107;SDS011;42987;52.916;6.542;2022-12-20T09:33:43;7.50;;;4.40;;
57107;SDS011;42987;52.916;6.542;2022-12-20T09:36:10;7.35;;;4.45;;
57107;SDS011;42987;52.916;6.542;2022-12-20T09:38:38;7.78;;;4.60;;
57107;SDS011;42987;52.916;6.542;2022-12-20T09:41:04;6.82;;;4.22;;
57107;SDS011;42987;52.916;6.542;2022-12-20T09:43:32;6.57;;;4.70;;
57107;SDS011;42987;52.916;6.542;2022-12-20T09:45:59;5.97;;;3.85;;
57107;SDS011;42987;52.916;6.542;2022-12-20T09:56:15;7.78;;;4.35;;
57107;SDS011;42987;52.916;6.542;2022-12-20T09:59:24;6.43;;;4.47;;
57107;SDS011;42987;52.916;6.542;2022-12-20T10:01:47;9.05;;;4.63;;
57107;SDS011;42987;52.916;6.542;2022-12-20T10:06:52;7.40;;;4.78;;
57107;SDS011;42987;52.916;6.542;2022-12-20T10:09:34;8.15;;;4.40;;
57107;SDS011;42987;52.916;6.542;2022-12-20T10:17:56;8.20;;;5.05;;
57107;SDS011;42987;52.916;6.542;2022-12-20T10:26:11;7.90;;;5.78;;
57107;SDS011;42987;52.916;6.542;2022-12-20T10:28:37;8.32;;;5.40;;
57107;SDS011;42987;52.916;6.542;2022-12-20T10:31:14;6.30;;;4.88;;
57107;SDS011;42987;52.916;6.542;2022-12-20T10:33:42;6.80;;;4.88;;
57107;SDS011;42987;52.916;6.542;2022-12-20T10:36:22;7.10;;;5.68;;
57107;SDS011;42987;52.916;6.542;2022-12-20T10:39:00;11.20;;;5.88;;
57107;SDS011;42987;52.916;6.542;2022-12-20T10:46:51;8.25;;;5.50;;
57107;SDS011;42987;52.916;6.542;2022-12-20T10:49:21;10.07;;;5.72;;
57107;SDS011;42987;52.916;6.542;2022-12-20T10:51:54;8.38;;;6.15;;
57107;SDS011;42987;52.916;6.542;2022-12-20T10:54:23;9.00;;;6.85;;
57107;SDS011;42987;52.916;6.542;2022-12-20T10:56:58;7.78;;;6.05;;
57107;SDS011;42987;52.916;6.542;2022-12-20T10:59:30;8.15;;;6.20;;
57107;SDS011;42987;52.916;6.542;2022-12-20T11:01:59;8.43;;;6.25;;
57107;SDS011;42987;52.916;6.542;2022-12-20T11:04:35;9.18;;;6.75;;
57107;SDS011;42987;52.916;6.542;2022-12-20T11:07:20;9.38;;;6.50;;
57107;SDS011;42987;52.916;6.542;2022-12-20T11:09:51;7.45;;;6.40;;
57107;SDS011;42987;52.916;6.542;2022-12-20T11:12:23;10.52;;;7.07;;
57107;SDS011;42987;52.916;6.542;2022-12-20T11:14:49;9.05;;;6.75;;
57107;SDS011;42987;52.916;6.542;2022-12-20T11:17:40;9.93;;;6.72;;
57107;SDS011;42987;52.916;6.542;2022-12-20T11:34:29;9.75;;;7.03;;
57107;SDS011;42987;52.916;6.542;2022-12-20T11:40:09;9.57;;;7.05;;
57107;SDS011;42987;52.916;6.542;2022-12-20T11:53:37;6.93;;;5.82;;
57107;SDS011;42987;52.916;6.542;2022-12-20T11:56:32;7.88;;;6.28;;
57107;SDS011;42987;52.916;6.542;2022-12-20T12:01:37;8.65;;;6.55;;
57107;SDS011;42987;52.916;6.542;2022-12-20T12:04:10;8.10;;;6.55;;
57107;SDS011;42987;52.916;6.542;2022-12-20T12:06:45;7.55;;;6.40;;
57107;SDS011;42987;52.916;6.542;2022-12-20T12:13:24;8.15;;;6.32;;
57107;SDS011;42987;52.916;6.542;2022-12-20T12:15:39;10.73;;;6.50;;
57107;SDS011;42987;52.916;6.542;2022-12-20T12:18:23;8.68;;;7.68;;
57107;SDS011;42987;52.916;6.542;2022-12-20T12:20:55;8.40;;;6.93;;
57107;SDS011;42987;52.916;6.542;2022-12-20T12:26:24;10.57;;;7.40;;
57107;SDS011;42987;52.916;6.542;2022-12-20T12:28:55;9.55;;;8.18;;
57107;SDS011;42987;52.916;6.542;2022-12-20T12:42:44;11.25;;;10.05;;
57107;SDS011;42987;52.916;6.542;2022-12-20T12:50:59;10.90;;;9.75;;
57107;SDS011;42987;52.916;6.542;2022-12-20T13:01:49;13.73;;;10.52;;
57107;SDS011;42987;52.916;6.542;2022-12-20T13:04:51;11.40;;;10.07;;
57107;SDS011;42987;52.916;6.542;2022-12-20T13:07:39;12.50;;;11.20;;
57107;SDS011;42987;52.916;6.542;2022-12-20T13:20:37;14.10;;;12.63;;
57107;SDS011;42987;52.916;6.542;2022-12-20T13:30:45;13.63;;;12.23;;
57107;SDS011;42987;52.916;6.542;2022-12-20T13:33:17;13.82;;;12.52;;
57107;SDS011;42987;52.916;6.542;2022-12-20T13:35:58;14.88;;;13.10;;
57107;SDS011;42987;52.916;6.542;2022-12-20T13:43:45;14.35;;;12.85;;
57107;SDS011;42987;52.916;6.542;2022-12-20T13:46:23;15.00;;;13.73;;
57107;SDS011;42987;52.916;6.542;2022-12-20T13:48:55;14.10;;;12.68;;
57107;SDS011;42987;52.916;6.542;2022-12-20T13:51:27;14.57;;;13.18;;
57107;SDS011;42987;52.916;6.542;2022-12-20T13:59:16;14.07;;;12.77;;
57107;SDS011;42987;52.916;6.542;2022-12-20T14:01:50;14.55;;;13.18;;
57107;SDS011;42987;52.916;6.542;2022-12-20T14:04:18;15.40;;;13.98;;
57107;SDS011;42987;52.916;6.542;2022-12-20T14:07:18;14.93;;;13.60;;
57107;SDS011;42987;52.916;6.542;2022-12-20T14:09:42;14.75;;;13.30;;
57107;SDS011;42987;52.916;6.542;2022-12-20T14:12:13;15.32;;;14.00;;
57107;SDS011;42987;52.916;6.542;2022-12-20T14:14:44;15.30;;;13.75;;
57107;SDS011;42987;52.916;6.542;2022-12-20T14:17:24;15.68;;;14.27;;
57107;SDS011;42987;52.916;6.542;2022-12-20T14:22:56;15.05;;;13.55;;
57107;SDS011;42987;52.916;6.542;2022-12-20T14:25:50;15.63;;;14.25;;
57107;SDS011;42987;52.916;6.542;2022-12-20T14:28:22;15.95;;;14.60;;
57107;SDS011;42987;52.916;6.542;2022-12-20T14:31:04;18.00;;;16.20;;
57107;SDS011;42987;52.916;6.542;2022-12-20T14:36:08;18.38;;;16.60;;
57107;SDS011;42987;52.916;6.542;2022-12-20T14:38:48;17.70;;;16.20;;
57107;SDS011;42987;52.916;6.542;2022-12-20T14:41:30;17.83;;;16.23;;
57107;SDS011;42987;52.916;6.542;2022-12-20T14:46:59;18.67;;;16.88;;
57107;SDS011;42987;52.916;6.542;2022-12-20T14:49:32;19.95;;;18.13;;
57107;SDS011;42987;52.916;6.542;2022-12-20T14:54:40;20.50;;;18.75;;
57107;SDS011;42987;52.916;6.542;2022-12-20T15:13:20;21.52;;;19.75;;
57107;SDS011;42987;52.916;6.542;2022-12-20T15:18:16;21.23;;;19.42;;
57107;SDS011;42987;52.916;6.542;2022-12-20T15:20:43;20.88;;;19.08;;
57107;SDS011;42987;52.916;6.542;2022-12-20T15:23:16;21.10;;;19.30;;
57107;SDS011;42987;52.916;6.542;2022-12-20T15:25:44;22.35;;;20.35;;
57107;SDS011;42987;52.916;6.542;2022-12-20T15:28:18;23.52;;;21.42;;
57107;SDS011;42987;52.916;6.542;2022-12-20T15:30:46;22.48;;;20.58;;
57107;SDS011;42987;52.916;6.542;2022-12-20T15:33:15;25.15;;;22.67;;
57107;SDS011;42987;52.916;6.542;2022-12-20T15:35:43;24.48;;;22.20;;
57107;SDS011;42987;52.916;6.542;2022-12-20T15:38:14;23.55;;;21.33;;
57107;SDS011;42987;52.916;6.542;2022-12-20T15:40:43;21.10;;;19.20;;
57107;SDS011;42987;52.916;6.542;2022-12-20T15:43:11;21.48;;;19.60;;
57107;SDS011;42987;52.916;6.542;2022-12-20T15:45:39;23.50;;;21.23;;
57107;SDS011;42987;52.916;6.542;2022-12-20T15:48:08;23.73;;;21.52;;
57107;SDS011;42987;52.916;6.542;2022-12-20T15:50:47;22.98;;;20.95;;
57107;SDS011;42987;52.916;6.542;2022-12-20T15:53:16;24.10;;;21.92;;
57107;SDS011;42987;52.916;6.542;2022-12-20T15:55:47;23.58;;;21.55;;
57107;SDS011;42987;52.916;6.542;2022-12-20T15:58:14;24.08;;;21.85;;
57107;SDS011;42987;52.916;6.542;2022-12-20T16:00:40;25.65;;;23.33;;
57107;SDS011;42987;52.916;6.542;2022-12-20T16:03:11;25.55;;;23.33;;
57107;SDS011;42987;52.916;6.542;2022-12-20T16:05:40;22.77;;;20.60;;
57107;SDS011;42987;52.916;6.542;2022-12-20T16:08:05;22.85;;;20.77;;
57107;SDS011;42987;52.916;6.542;2022-12-20T16:10:31;23.40;;;21.30;;
57107;SDS011;42987;52.916;6.542;2022-12-20T16:12:57;23.35;;;21.25;;
57107;SDS011;42987;52.916;6.542;2022-12-20T16:15:23;25.83;;;23.45;;
57107;SDS011;42987;52.916;6.542;2022-12-20T16:17:49;24.45;;;22.25;;
57107;SDS011;42987;52.916;6.542;2022-12-20T16:20:18;24.13;;;21.90;;
57107;SDS011;42987;52.916;6.542;2022-12-20T16:22:44;24.70;;;22.60;;
57107;SDS011;42987;52.916;6.542;2022-12-20T16:25:22;26.35;;;23.90;;
57107;SDS011;42987;52.916;6.542;2022-12-20T16:27:53;23.88;;;21.70;;
57107;SDS011;42987;52.916;6.542;2022-12-20T16:30:19;25.08;;;22.90;;
57107;SDS011;42987;52.916;6.542;2022-12-20T16:32:46;23.65;;;21.60;;
57107;SDS011;42987;52.916;6.542;2022-12-20T16:37:51;23.15;;;21.05;;
57107;SDS011;42987;52.916;6.542;2022-12-20T16:40:19;27.15;;;24.55;;
57107;SDS011;42987;52.916;6.542;2022-12-20T16:42:47;27.38;;;24.83;;
57107;SDS011;42987;52.916;6.542;2022-12-20T16:45:18;27.23;;;24.83;;
57107;SDS011;42987;52.916;6.542;2022-12-20T16:47:46;26.23;;;23.73;;
57107;SDS011;42987;52.916;6.542;2022-12-20T16:50:12;28.33;;;25.70;;
57107;SDS011;42987;52.916;6.542;2022-12-20T16:52:39;28.48;;;25.58;;
57107;SDS011;42987;52.916;6.542;2022-12-20T16:55:05;28.85;;;26.20;;
57107;SDS011;42987;52.916;6.542;2022-12-20T16:57:36;29.88;;;27.02;;
57107;SDS011;42987;52.916;6.542;2022-12-20T17:00:02;30.02;;;27.00;;
57107;SDS011;42987;52.916;6.542;2022-12-20T17:02:30;31.13;;;27.92;;
57107;SDS011;42987;52.916;6.542;2022-12-20T17:04:58;29.50;;;26.58;;
57107;SDS011;42987;52.916;6.542;2022-12-20T17:07:25;29.90;;;26.90;;
57107;SDS011;42987;52.916;6.542;2022-12-20T17:09:51;32.05;;;28.85;;
57107;SDS011;42987;52.916;6.542;2022-12-20T17:12:18;31.27;;;28.27;;
57107;SDS011;42987;52.916;6.542;2022-12-20T17:14:45;35.75;;;31.98;;
57107;SDS011;42987;52.916;6.542;2022-12-20T17:17:13;35.55;;;31.73;;
57107;SDS011;42987;52.916;6.542;2022-12-20T17:19:40;33.67;;;30.13;;
57107;SDS011;42987;52.916;6.542;2022-12-20T17:22:06;35.42;;;31.73;;
57107;SDS011;42987;52.916;6.542;2022-12-20T17:24:34;36.45;;;32.58;;
57107;SDS011;42987;52.916;6.542;2022-12-20T17:27:00;37.15;;;33.10;;
57107;SDS011;42987;52.916;6.542;2022-12-20T17:29:25;40.85;;;35.35;;
57107;SDS011;42987;52.916;6.542;2022-12-20T17:31:51;39.03;;;34.70;;
57107;SDS011;42987;52.916;6.542;2022-12-20T17:34:18;37.75;;;33.83;;
57107;SDS011;42987;52.916;6.542;2022-12-20T17:36:49;38.45;;;34.22;;
57107;SDS011;42987;52.916;6.542;2022-12-20T17:39:18;44.90;;;36.13;;
57107;SDS011;42987;52.916;6.542;2022-12-20T17:41:44;42.25;;;35.95;;